Time;durP1;ratioP1;P1;durP2;ratioP2;P2;SDS_P1;SDS_P2;PMS_P1;PMS_P2;Temp;Humidity;BMP_temperature;BMP_pressure;BME280_temperature;BME280_humidity;BME280_pressure;Samples;Min_cycle;Max_cycle;Signal;HPM_P1;HPM_P2
2023/04/29 00:02:06;;;;;;;22.40;13.70;;;;;;;;;;5065124;28;20048;-80
2023/04/29 00:04:33;;;;;;;23.25;14.43;;;;;;;;;;5060454;28;20052;-80
2023/04/29 00:06:59;;;;;;;23.95;15.18;;;;;;;;;;5064349;28;20056;-80
2023/04/29 00:09:25;;;;;;;26.38;14.35;;;;;;;;;;5050458;28;20519;-80
2023/04/29 00:11:51;;;;;;;25.48;15.57;;;;;;;;;;5052976;28;20087;-80
2023/04/29 00:14:17;;;;;;;28.20;15.98;;;;;;;;;;5035848;28;20155;-80
2023/04/29 00:16:43;;;;;;;24.42;14.43;;;;;;;;;;5057453;28;20032;-80
2023/04/29 00:19:10;;;;;;;25.02;14.98;;;;;;;;;;5052007;28;20524;-80
2023/04/29 00:21:36;;;;;;;23.40;14.63;;;;;;;;;;5056476;28;20044;-80
2023/04/29 00:24:02;;;;;;;26.50;15.85;;;;;;;;;;5043674;28;20041;-80
2023/04/29 00:26:28;;;;;;;25.67;15.57;;;;;;;;;;5067986;28;20051;-80
2023/04/29 00:28:54;;;;;;;24.55;15.15;;;;;;;;;;5048152;28;20045;-80
2023/04/29 00:31:20;;;;;;;27.48;16.13;;;;;;;;;;5042297;28;20036;-80
2023/04/29 00:33:46;;;;;;;27.67;17.45;;;;;;;;;;5037943;28;20045;-80
2023/04/29 00:36:12;;;;;;;27.58;16.27;;;;;;;;;;5066590;28;20036;-80
2023/04/29 00:38:38;;;;;;;27.15;16.38;;;;;;;;;;5049005;28;20121;-80
2023/04/29 00:41:04;;;;;;;24.63;16.95;;;;;;;;;;5038582;28;20111;-80
2023/04/29 00:43:31;;;;;;;31.38;18.17;;;;;;;;;;5050072;28;20033;-80
2023/04/29 00:45:57;;;;;;;27.25;17.42;;;;;;;;;;5065513;28;20551;-81
2023/04/29 00:48:23;;;;;;;27.75;17.27;;;;;;;;;;5050680;28;20041;-80
2023/04/29 00:50:50;;;;;;;26.63;17.38;;;;;;;;;;5070371;28;20075;-80
2023/04/29 00:53:16;;;;;;;22.85;15.55;;;;;;;;;;5054516;28;20123;-80
2023/04/29 00:55:43;;;;;;;30.08;16.85;;;;;;;;;;5046365;28;20052;-80
2023/04/29 00:58:10;;;;;;;26.77;16.15;;;;;;;;;;5067226;28;20503;-80
2023/04/29 01:00:37;;;;;;;28.35;15.73;;;;;;;;;;5054528;28;20045;-80
2023/04/29 01:03:04;;;;;;;26.80;16.88;;;;;;;;;;5063678;28;20044;-80
2023/04/29 01:05:31;;;;;;;30.42;17.38;;;;;;;;;;5071242;28;20053;-80
2023/04/29 01:08:13;;;;;;;30.70;19.08;;;;;;;;;;5060825;28;20091;-80
2023/04/29 01:10:44;;;;;;;34.20;21.45;;;;;;;;;;5050982;28;20049;-80
2023/04/29 01:13:17;;;;;;;34.67;19.77;;;;;;;;;;5065183;28;20041;-80
2023/04/29 01:15:43;;;;;;;33.17;19.23;;;;;;;;;;5070733;28;20041;-80
2023/04/29 01:18:29;;;;;;;31.25;18.85;;;;;;;;;;5068585;28;20086;-80
2023/04/29 01:20:56;;;;;;;26.73;17.15;;;;;;;;;;5068087;28;20090;-80
2023/04/29 01:23:25;;;;;;;29.40;17.48;;;;;;;;;;5059775;28;20041;-80
2023/04/29 01:25:51;;;;;;;24.27;14.75;;;;;;;;;;5039860;28;20148;-80
2023/04/29 01:28:28;;;;;;;25.30;16.25;;;;;;;;;;5038828;28;20049;-81
2023/04/29 01:31:10;;;;;;;23.77;15.52;;;;;;;;;;5053362;28;20559;-80
2023/04/29 01:33:54;;;;;;;28.13;15.82;;;;;;;;;;5066449;28;20045;-81
2023/04/29 01:36:26;;;;;;;23.42;15.90;;;;;;;;;;5054406;28;20032;-80
2023/04/29 01:39:02;;;;;;;29.15;16.83;;;;;;;;;;5042810;28;21767;-80
2023/04/29 01:41:38;;;;;;;30.00;17.40;;;;;;;;;;5064800;28;20048;-80
2023/04/29 01:44:07;;;;;;;25.90;16.15;;;;;;;;;;5037816;28;20047;-81
2023/04/29 01:46:34;;;;;;;27.65;16.65;;;;;;;;;;5056847;28;20079;-80
2023/04/29 01:49:00;;;;;;;26.27;16.23;;;;;;;;;;5041474;28;20561;-80
2023/04/29 01:51:27;;;;;;;25.77;17.27;;;;;;;;;;5056010;28;20123;-80
2023/04/29 01:53:53;;;;;;;25.38;17.27;;;;;;;;;;5053386;28;20044;-80
2023/04/29 01:56:19;;;;;;;25.17;16.77;;;;;;;;;;5051127;28;20052;-80
2023/04/29 01:58:45;;;;;;;23.23;15.63;;;;;;;;;;5054867;28;20061;-80
2023/04/29 02:01:11;;;;;;;26.92;16.42;;;;;;;;;;5067752;28;20040;-80
2023/04/29 02:03:37;;;;;;;26.15;15.98;;;;;;;;;;5050752;28;20045;-80
2023/04/29 02:06:05;;;;;;;25.70;15.77;;;;;;;;;;5072901;28;20102;-80
2023/04/29 02:08:31;;;;;;;26.00;16.45;;;;;;;;;;5070032;28;20128;-80
2023/04/29 02:10:59;;;;;;;23.92;15.63;;;;;;;;;;5047064;28;20051;-80
2023/04/29 02:13:25;;;;;;;23.65;15.00;;;;;;;;;;5044769;28;20131;-80
2023/04/29 02:15:51;;;;;;;31.45;15.23;;;;;;;;;;5061117;28;20044;-81
2023/04/29 02:18:17;;;;;;;21.73;15.18;;;;;;;;;;5044629;28;20048;-80
2023/04/29 02:20:43;;;;;;;27.05;14.73;;;;;;;;;;5041577;28;20048;-80
2023/04/29 02:23:09;;;;;;;28.95;15.65;;;;;;;;;;5055076;28;20400;-80
2023/04/29 02:25:36;;;;;;;25.42;14.75;;;;;;;;;;5052173;28;20109;-80
2023/04/29 02:28:02;;;;;;;22.63;13.13;;;;;;;;;;5062028;28;20087;-81
2023/04/29 02:30:28;;;;;;;22.52;13.82;;;;;;;;;;5054428;28;20045;-81
2023/04/29 02:32:54;;;;;;;26.60;14.48;;;;;;;;;;5053118;28;20476;-81
2023/04/29 02:35:20;;;;;;;23.48;14.85;;;;;;;;;;5071033;28;20060;-81
2023/04/29 02:37:46;;;;;;;25.58;14.50;;;;;;;;;;5071747;28;20045;-81
2023/04/29 02:40:12;;;;;;;28.58;16.30;;;;;;;;;;5035692;28;20381;-80
2023/04/29 02:42:38;;;;;;;30.08;16.73;;;;;;;;;;5055766;28;20167;-80
2023/04/29 02:45:04;;;;;;;25.92;16.60;;;;;;;;;;5059772;28;20128;-80
2023/04/29 02:47:30;;;;;;;28.88;16.73;;;;;;;;;;5047521;28;20036;-81
2023/04/29 02:49:56;;;;;;;27.63;15.88;;;;;;;;;;5063667;28;20028;-80
2023/04/29 02:52:22;;;;;;;28.90;16.30;;;;;;;;;;5053757;28;21959;-80
2023/04/29 02:54:48;;;;;;;32.35;16.05;;;;;;;;;;5051140;28;20052;-81
2023/04/29 02:57:14;;;;;;;27.98;16.15;;;;;;;;;;5038318;28;20064;-80
2023/04/29 02:59:40;;;;;;;27.40;15.80;;;;;;;;;;5065127;28;20067;-80
2023/04/29 03:02:06;;;;;;;29.25;15.27;;;;;;;;;;5034031;28;20053;-80
2023/04/29 03:04:32;;;;;;;28.38;15.52;;;;;;;;;;5049733;28;20047;-80
2023/04/29 03:06:58;;;;;;;29.60;16.02;;;;;;;;;;5054343;28;20056;-80
2023/04/29 03:09:25;;;;;;;30.98;15.35;;;;;;;;;;5050681;28;20490;-80
2023/04/29 03:11:52;;;;;;;26.67;15.35;;;;;;;;;;5064051;28;20045;-80
2023/04/29 03:14:18;;;;;;;25.25;13.88;;;;;;;;;;5051298;28;20051;-80
2023/04/29 03:16:44;;;;;;;24.02;13.80;;;;;;;;;;5035045;28;20143;-81
2023/04/29 03:19:10;;;;;;;25.98;14.35;;;;;;;;;;5053977;28;20067;-80
2023/04/29 03:21:36;;;;;;;21.35;12.32;;;;;;;;;;5063242;28;20095;-80
2023/04/29 03:24:02;;;;;;;27.42;12.85;;;;;;;;;;5063162;28;20039;-80
2023/04/29 03:26:28;;;;;;;22.83;12.32;;;;;;;;;;5053006;28;20051;-80
2023/04/29 03:28:54;;;;;;;22.10;12.27;;;;;;;;;;5053598;28;20040;-81
2023/04/29 03:31:22;;;;;;;19.65;12.55;;;;;;;;;;5064721;28;20134;-80
2023/04/29 03:33:48;;;;;;;22.92;11.90;;;;;;;;;;5052855;28;20123;-80
2023/04/29 03:36:14;;;;;;;21.38;12.25;;;;;;;;;;5061610;28;20472;-81
2023/04/29 03:38:40;;;;;;;17.50;11.52;;;;;;;;;;5050911;28;20049;-80
2023/04/29 03:41:06;;;;;;;22.88;11.07;;;;;;;;;;5051106;28;20131;-80
2023/04/29 03:43:32;;;;;;;15.60;10.50;;;;;;;;;;5039928;28;20124;-81
2023/04/29 03:45:58;;;;;;;18.42;10.95;;;;;;;;;;5064308;28;20045;-81
2023/04/29 03:48:24;;;;;;;22.83;11.35;;;;;;;;;;5068808;28;20098;-80
2023/04/29 03:50:50;;;;;;;18.20;10.63;;;;;;;;;;5053261;28;20041;-81
2023/04/29 03:53:17;;;;;;;19.23;10.77;;;;;;;;;;5065255;28;20051;-81
2023/04/29 03:55:43;;;;;;;19.65;11.50;;;;;;;;;;5046404;28;20052;-80
2023/04/29 03:58:09;;;;;;;19.10;11.23;;;;;;;;;;5065143;28;20072;-80
2023/04/29 04:00:35;;;;;;;21.48;12.25;;;;;;;;;;5046012;28;20055;-80
2023/04/29 04:03:02;;;;;;;19.80;11.40;;;;;;;;;;5042192;28;20043;-80
2023/04/29 04:05:28;;;;;;;19.08;11.15;;;;;;;;;;5071119;28;20110;-81
2023/04/29 04:07:54;;;;;;;20.05;11.30;;;;;;;;;;5053254;28;20052;-80
2023/04/29 04:10:20;;;;;;;17.98;11.50;;;;;;;;;;5068397;28;20041;-80
2023/04/29 04:12:46;;;;;;;17.30;11.40;;;;;;;;;;5051106;28;20041;-81
2023/04/29 04:15:12;;;;;;;20.50;10.93;;;;;;;;;;5048145;28;20507;-80
2023/04/29 04:17:39;;;;;;;19.33;11.05;;;;;;;;;;5065602;28;20049;-80
2023/04/29 04:20:05;;;;;;;23.92;11.43;;;;;;;;;;5049408;28;20056;-81
2023/04/29 04:22:31;;;;;;;19.92;11.18;;;;;;;;;;5051399;28;20051;-80
2023/04/29 04:24:57;;;;;;;19.23;10.85;;;;;;;;;;5061302;28;20036;-81
2023/04/29 04:27:23;;;;;;;18.95;10.60;;;;;;;;;;5046162;28;20048;-80
2023/04/29 04:29:53;;;;;;;21.20;10.95;;;;;;;;;;5064731;28;20044;-81
2023/04/29 04:32:19;;;;;;;25.30;11.18;;;;;;;;;;5052334;28;20051;-81
2023/04/29 04:34:45;;;;;;;19.15;10.07;;;;;;;;;;5048391;28;20127;-81
2023/04/29 04:37:11;;;;;;;18.83;9.40;;;;;;;;;;5039166;28;20045;-81
2023/04/29 04:39:38;;;;;;;20.23;9.30;;;;;;;;;;5035647;28;20049;-80
2023/04/29 04:42:04;;;;;;;14.43;8.25;;;;;;;;;;5047817;28;20041;-80
2023/04/29 04:44:30;;;;;;;14.00;9.13;;;;;;;;;;5069409;28;20041;-81
2023/04/29 04:46:57;;;;;;;14.75;9.05;;;;;;;;;;5068738;28;20056;-81
2023/04/29 04:49:26;;;;;;;17.73;8.77;;;;;;;;;;5058722;28;20212;-80
2023/04/29 04:51:52;;;;;;;17.60;8.63;;;;;;;;;;5070587;28;20047;-81
2023/04/29 04:54:19;;;;;;;13.55;8.15;;;;;;;;;;5035953;28;20072;-81
2023/04/29 04:56:45;;;;;;;18.10;9.07;;;;;;;;;;5050817;28;20056;-81
2023/04/29 04:59:11;;;;;;;20.63;9.05;;;;;;;;;;5045930;28;20048;-81
2023/04/29 05:01:37;;;;;;;18.95;9.02;;;;;;;;;;5062342;28;20055;-81
2023/04/29 05:04:03;;;;;;;19.02;9.00;;;;;;;;;;5058091;28;20049;-81
2023/04/29 05:06:29;;;;;;;16.73;8.60;;;;;;;;;;5041628;28;20061;-81
2023/04/29 05:08:55;;;;;;;18.45;8.55;;;;;;;;;;5063359;28;20099;-80
2023/04/29 05:11:21;;;;;;;16.58;8.77;;;;;;;;;;5056386;28;20056;-81
2023/04/29 05:13:48;;;;;;;12.52;7.13;;;;;;;;;;5052778;28;20045;-81
2023/04/29 05:16:16;;;;;;;15.00;7.88;;;;;;;;;;5059039;28;20091;-81
2023/04/29 05:18:44;;;;;;;14.48;7.22;;;;;;;;;;5050934;28;20566;-80
2023/04/29 05:21:10;;;;;;;15.18;7.65;;;;;;;;;;5052484;28;20049;-80
2023/04/29 05:23:36;;;;;;;11.38;6.53;;;;;;;;;;5044211;28;20377;-81
2023/04/29 05:26:02;;;;;;;16.10;6.30;;;;;;;;;;5045175;28;20099;-80
2023/04/29 05:28:28;;;;;;;14.05;6.50;;;;;;;;;;5064444;28;20037;-80
2023/04/29 05:30:54;;;;;;;12.80;6.70;;;;;;;;;;5034354;28;20048;-80
2023/04/29 05:33:20;;;;;;;15.50;6.72;;;;;;;;;;5042921;28;20172;-80
2023/04/29 05:35:46;;;;;;;14.60;6.53;;;;;;;;;;5059920;28;20492;-81
2023/04/29 05:38:13;;;;;;;14.38;7.00;;;;;;;;;;5062998;28;20036;-81
2023/04/29 05:40:39;;;;;;;11.63;6.40;;;;;;;;;;5051856;28;20461;-81
2023/04/29 05:43:05;;;;;;;12.35;6.85;;;;;;;;;;5062325;28;20044;-81
2023/04/29 05:45:31;;;;;;;18.40;6.15;;;;;;;;;;5045470;28;20127;-81
2023/04/29 05:47:57;;;;;;;8.40;5.38;;;;;;;;;;5045298;28;20555;-81
2023/04/29 05:50:23;;;;;;;12.95;6.30;;;;;;;;;;5047425;28;20050;-80
2023/04/29 05:52:50;;;;;;;9.57;6.05;;;;;;;;;;5067998;28;20037;-81
2023/04/29 05:55:16;;;;;;;17.85;7.43;;;;;;;;;;5039119;28;20048;-81
2023/04/29 05:57:42;;;;;;;13.52;6.68;;;;;;;;;;5066508;28;20049;-81
2023/04/29 06:00:09;;;;;;;11.95;6.40;;;;;;;;;;5041103;28;20110;-81
2023/04/29 06:02:35;;;;;;;14.77;6.50;;;;;;;;;;5062596;28;20597;-80
2023/04/29 06:05:01;;;;;;;15.43;7.15;;;;;;;;;;5042595;28;20044;-81
2023/04/29 06:07:27;;;;;;;17.00;6.22;;;;;;;;;;5052945;28;20048;-81
2023/04/29 06:09:53;;;;;;;12.40;6.35;;;;;;;;;;5041942;28;20436;-81
2023/04/29 06:12:19;;;;;;;12.25;7.07;;;;;;;;;;5038716;28;20159;-81
2023/04/29 06:14:45;;;;;;;14.80;6.82;;;;;;;;;;5054686;28;20131;-81
2023/04/29 06:17:12;;;;;;;11.27;6.47;;;;;;;;;;5045464;28;20066;-80
2023/04/29 06:19:37;;;;;;;14.60;6.90;;;;;;;;;;5052773;28;20060;-81
2023/04/29 06:22:04;;;;;;;11.70;6.40;;;;;;;;;;5066026;28;20041;-81
2023/04/29 06:24:30;;;;;;;12.52;7.13;;;;;;;;;;5058113;28;20057;-80
2023/04/29 06:26:56;;;;;;;13.48;6.88;;;;;;;;;;5071641;28;20135;-80
2023/04/29 06:29:22;;;;;;;13.00;7.22;;;;;;;;;;5046723;28;20131;-80
2023/04/29 06:31:48;;;;;;;13.02;7.63;;;;;;;;;;5047531;28;20154;-81
2023/04/29 06:34:14;;;;;;;12.38;7.22;;;;;;;;;;5041659;28;20048;-81
2023/04/29 06:36:40;;;;;;;16.20;8.00;;;;;;;;;;5041742;28;20072;-81
2023/04/29 06:39:06;;;;;;;10.48;6.90;;;;;;;;;;5042828;28;20052;-80
2023/04/29 06:41:33;;;;;;;19.05;7.47;;;;;;;;;;5060707;28;20446;-80
2023/04/29 06:43:59;;;;;;;13.45;7.13;;;;;;;;;;5034263;28;20098;-81
2023/04/29 06:46:26;;;;;;;12.77;6.80;;;;;;;;;;5055855;28;20136;-81
2023/04/29 06:48:52;;;;;;;12.82;6.50;;;;;;;;;;5063093;28;20040;-81
2023/04/29 06:51:18;;;;;;;11.95;7.10;;;;;;;;;;5050334;28;20053;-81
2023/04/29 06:53:45;;;;;;;14.32;6.97;;;;;;;;;;5041600;28;20091;-81
2023/04/29 06:56:11;;;;;;;14.18;6.90;;;;;;;;;;5060175;28;20057;-81
2023/04/29 06:58:38;;;;;;;12.77;6.55;;;;;;;;;;5041937;28;20477;-81
2023/04/29 07:01:06;;;;;;;9.98;6.57;;;;;;;;;;5058010;28;20067;-80
2023/04/29 07:03:32;;;;;;;14.80;6.57;;;;;;;;;;5071483;28;20051;-81
2023/04/29 07:05:58;;;;;;;11.65;7.03;;;;;;;;;;5052833;28;20100;-81
2023/04/29 07:08:24;;;;;;;11.77;6.90;;;;;;;;;;5059968;28;20040;-81
2023/04/29 07:10:56;;;;;;;11.40;6.30;;;;;;;;;;5049285;28;20115;-81
2023/04/29 07:13:22;;;;;;;14.57;7.07;;;;;;;;;;5066018;28;20072;-81
2023/04/29 07:15:48;;;;;;;11.68;6.82;;;;;;;;;;5065339;28;20078;-80
2023/04/29 07:18:14;;;;;;;10.55;6.88;;;;;;;;;;5070674;28;20868;-81
2023/04/29 07:20:41;;;;;;;11.68;6.45;;;;;;;;;;5059328;28;20489;-80
2023/04/29 07:23:07;;;;;;;13.27;7.18;;;;;;;;;;5058728;28;20041;-80
2023/04/29 07:25:33;;;;;;;11.65;5.95;;;;;;;;;;5050763;28;20048;-80
2023/04/29 07:27:59;;;;;;;10.32;6.05;;;;;;;;;;5047191;28;20536;-81
2023/04/29 07:30:25;;;;;;;12.05;6.85;;;;;;;;;;5051369;28;20118;-81
2023/04/29 07:32:51;;;;;;;12.98;6.72;;;;;;;;;;5050471;28;20044;-81
2023/04/29 07:35:17;;;;;;;13.10;6.70;;;;;;;;;;5069544;28;20404;-79
2023/04/29 07:37:44;;;;;;;11.15;6.85;;;;;;;;;;5066149;28;20044;-81
2023/04/29 07:40:10;;;;;;;10.60;6.70;;;;;;;;;;5062620;28;20044;-81
2023/04/29 07:42:36;;;;;;;15.32;7.07;;;;;;;;;;5062530;28;20037;-81
2023/04/29 07:45:03;;;;;;;15.65;7.47;;;;;;;;;;5057976;28;20041;-81
2023/04/29 07:47:29;;;;;;;15.35;7.93;;;;;;;;;;5039378;28;20067;-81
2023/04/29 07:49:55;;;;;;;11.48;6.53;;;;;;;;;;5044929;28;20404;-81
2023/04/29 07:52:21;;;;;;;14.75;7.53;;;;;;;;;;5050705;28;20044;-81
2023/04/29 07:54:47;;;;;;;17.55;8.15;;;;;;;;;;5039599;28;20037;-81
2023/04/29 07:57:13;;;;;;;12.35;7.00;;;;;;;;;;5045399;28;20060;-80
2023/04/29 07:59:39;;;;;;;14.85;7.45;;;;;;;;;;5034404;28;20045;-81
2023/04/29 08:02:06;;;;;;;13.68;7.97;;;;;;;;;;5039736;28;20060;-80
2023/04/29 08:04:32;;;;;;;14.88;7.53;;;;;;;;;;5029631;28;20033;-79
2023/04/29 08:06:58;;;;;;;10.73;7.65;;;;;;;;;;5038670;28;20489;-78
2023/04/29 08:09:24;;;;;;;15.95;7.63;;;;;;;;;;5037434;28;20067;-79
2023/04/29 08:11:50;;;;;;;12.15;7.28;;;;;;;;;;5040530;28;20049;-79
2023/04/29 08:14:16;;;;;;;12.38;7.43;;;;;;;;;;5045010;28;20049;-81
2023/04/29 08:16:42;;;;;;;12.13;7.10;;;;;;;;;;5037746;28;20045;-81
2023/04/29 08:19:08;;;;;;;12.93;6.88;;;;;;;;;;5002319;28;20088;-80
2023/04/29 08:21:34;;;;;;;12.60;6.38;;;;;;;;;;4990913;28;20050;-81
2023/04/29 08:24:00;;;;;;;11.98;6.57;;;;;;;;;;4974229;28;20053;-80
2023/04/29 08:26:26;;;;;;;12.57;6.85;;;;;;;;;;5004606;28;20046;-80
2023/04/29 08:28:52;;;;;;;11.77;6.40;;;;;;;;;;5004822;28;20037;-81
2023/04/29 08:31:20;;;;;;;9.93;6.13;;;;;;;;;;5002080;28;20068;-78
2023/04/29 08:33:46;;;;;;;9.30;6.55;;;;;;;;;;5006905;28;20050;-79
2023/04/29 08:36:12;;;;;;;11.45;6.13;;;;;;;;;;5003754;28;20050;-78
2023/04/29 08:38:38;;;;;;;13.80;6.50;;;;;;;;;;5006126;28;20046;-78
2023/04/29 08:41:07;;;;;;;13.68;5.95;;;;;;;;;;5005613;28;20058;-79
2023/04/29 08:43:35;;;;;;;14.02;6.53;;;;;;;;;;5009229;28;20046;-78
2023/04/29 08:46:03;;;;;;;10.45;6.20;;;;;;;;;;5006603;28;20057;-78
2023/04/29 08:48:29;;;;;;;12.52;5.47;;;;;;;;;;5007864;28;20050;-77
2023/04/29 08:50:57;;;;;;;10.90;6.07;;;;;;;;;;5009220;28;20534;-78
2023/04/29 08:53:23;;;;;;;10.57;5.78;;;;;;;;;;5005563;28;20049;-78
2023/04/29 08:55:49;;;;;;;11.50;5.75;;;;;;;;;;5001883;28;20120;-78
2023/04/29 08:58:16;;;;;;;9.50;5.10;;;;;;;;;;4989338;28;20054;-78
2023/04/29 09:00:42;;;;;;;9.82;4.72;;;;;;;;;;4984630;28;20050;-77
2023/04/29 09:03:14;;;;;;;11.95;5.70;;;;;;;;;;4973436;28;20066;-77
2023/04/29 09:05:41;;;;;;;14.65;5.55;;;;;;;;;;4984215;28;20046;-78
2023/04/29 09:08:08;;;;;;;8.98;5.10;;;;;;;;;;4970262;28;20097;-79
2023/04/29 09:10:36;;;;;;;8.38;4.80;;;;;;;;;;4968110;28;20046;-78
2023/04/29 09:13:02;;;;;;;7.00;4.75;;;;;;;;;;4995535;28;20050;-79
2023/04/29 09:15:28;;;;;;;10.63;5.60;;;;;;;;;;4972098;28;20042;-80
2023/04/29 09:17:54;;;;;;;11.40;5.63;;;;;;;;;;4987190;28;20043;-80
2023/04/29 09:20:20;;;;;;;11.85;5.63;;;;;;;;;;4984776;28;20054;-80
2023/04/29 09:22:47;;;;;;;8.23;5.53;;;;;;;;;;4968279;28;20042;-80
2023/04/29 09:25:13;;;;;;;9.10;5.00;;;;;;;;;;4989125;28;20038;-80
2023/04/29 09:27:39;;;;;;;7.35;4.88;;;;;;;;;;4989857;28;20039;-80
2023/04/29 09:30:06;;;;;;;7.10;4.43;;;;;;;;;;4974380;28;20105;-80
2023/04/29 09:32:32;;;;;;;9.85;4.63;;;;;;;;;;4994009;28;20506;-80
2023/04/29 09:34:58;;;;;;;7.13;4.47;;;;;;;;;;4967890;28;20039;-81
2023/04/29 09:37:25;;;;;;;9.45;5.70;;;;;;;;;;4985061;28;20371;-80
2023/04/29 09:39:51;;;;;;;9.00;4.88;;;;;;;;;;4976188;28;20494;-80
2023/04/29 09:42:17;;;;;;;8.80;5.05;;;;;;;;;;4990483;28;20409;-81
2023/04/29 09:44:44;;;;;;;8.38;5.10;;;;;;;;;;4972345;28;20061;-81
2023/04/29 09:47:10;;;;;;;11.77;4.78;;;;;;;;;;4974201;28;20050;-81
2023/04/29 09:49:41;;;;;;;9.23;5.00;;;;;;;;;;4978245;28;20402;-80
2023/04/29 09:52:08;;;;;;;8.82;4.82;;;;;;;;;;4976257;28;20053;-79
2023/04/29 09:54:38;;;;;;;7.90;5.28;;;;;;;;;;4975322;28;20506;-79
2023/04/29 09:57:05;;;;;;;5.85;4.53;;;;;;;;;;4989391;28;20054;-80
2023/04/29 09:59:31;;;;;;;8.10;4.35;;;;;;;;;;4991578;28;20042;-79
2023/04/29 10:01:58;;;;;;;10.35;4.82;;;;;;;;;;4975910;28;20042;-80
2023/04/29 10:04:25;;;;;;;10.18;4.82;;;;;;;;;;4991908;28;20451;-80
2023/04/29 10:06:52;;;;;;;7.55;4.40;;;;;;;;;;4976927;28;20062;-79
2023/04/29 10:09:19;;;;;;;10.10;5.40;;;;;;;;;;4976773;28;20057;-80
2023/04/29 10:11:46;;;;;;;8.38;4.28;;;;;;;;;;4968715;28;20197;-80
2023/04/29 10:14:14;;;;;;;7.93;4.10;;;;;;;;;;4983991;28;20042;-80
2023/04/29 10:17:02;;;;;;;7.45;3.65;;;;;;;;;;4974856;28;20555;-79
2023/04/29 10:19:49;;;;;;;5.60;4.07;;;;;;;;;;4989242;28;20489;-80
2023/04/29 10:22:18;;;;;;;6.22;3.85;;;;;;;;;;4958270;28;20098;-78
2023/04/29 10:24:46;;;;;;;6.68;3.75;;;;;;;;;;4986881;28;20039;-79
2023/04/29 10:27:13;;;;;;;5.88;3.70;;;;;;;;;;4974346;28;20050;-83
2023/04/29 10:29:40;;;;;;;6.15;3.40;;;;;;;;;;4971094;28;20054;-79
2023/04/29 10:32:09;;;;;;;6.30;3.70;;;;;;;;;;4987868;28;20089;-79
2023/04/29 10:34:38;;;;;;;6.35;3.00;;;;;;;;;;4971646;28;20064;-80
2023/04/29 10:37:05;;;;;;;6.07;3.30;;;;;;;;;;4972724;28;20062;-79
2023/04/29 10:39:54;;;;;;;5.55;3.08;;;;;;;;;;4987218;28;20046;-79
2023/04/29 10:42:32;;;;;;;6.68;3.20;;;;;;;;;;4948470;28;20450;-79
2023/04/29 10:45:20;;;;;;;8.43;3.08;;;;;;;;;;4990856;28;20046;-79
2023/04/29 10:48:07;;;;;;;5.05;3.00;;;;;;;;;;4963948;28;20145;-79
2023/04/29 10:50:49;;;;;;;6.88;3.00;;;;;;;;;;4958932;28;20124;-78
2023/04/29 10:53:16;;;;;;;3.65;2.83;;;;;;;;;;4974435;28;20064;-80
2023/04/29 10:55:42;;;;;;;5.00;3.17;;;;;;;;;;4983133;28;20050;-80
2023/04/29 10:58:27;;;;;;;6.70;3.40;;;;;;;;;;4987890;28;20046;-78
2023/04/29 11:00:53;;;;;;;5.15;3.35;;;;;;;;;;4964410;28;20057;-79
2023/04/29 11:03:45;;;;;;;6.05;3.33;;;;;;;;;;4976052;28;20042;-79
2023/04/29 11:06:11;;;;;;;5.78;3.50;;;;;;;;;;4973409;28;20100;-80
2023/04/29 11:08:38;;;;;;;4.53;3.28;;;;;;;;;;4978662;28;20038;-80
2023/04/29 11:11:08;;;;;;;5.78;3.08;;;;;;;;;;4986512;28;20774;-79
2023/04/29 11:13:38;;;;;;;6.05;3.10;;;;;;;;;;4985699;28;20042;-79
2023/04/29 11:16:04;;;;;;;5.30;3.20;;;;;;;;;;4969076;28;20057;-79
2023/04/29 11:18:30;;;;;;;4.43;2.97;;;;;;;;;;4975482;28;20130;-79
2023/04/29 11:21:05;;;;;;;6.70;2.90;;;;;;;;;;4982303;28;20062;-80
2023/04/29 11:23:41;;;;;;;6.03;3.22;;;;;;;;;;4979342;28;20062;-80
2023/04/29 11:26:10;;;;;;;7.30;3.45;;;;;;;;;;4980111;28;20082;-79
2023/04/29 11:28:36;;;;;;;7.65;3.40;;;;;;;;;;4973634;28;20101;-79
2023/04/29 11:31:02;;;;;;;4.40;3.30;;;;;;;;;;4970763;28;20605;-82
2023/04/29 11:33:31;;;;;;;5.72;3.50;;;;;;;;;;4974484;28;20042;-82
2023/04/29 11:35:57;;;;;;;5.13;3.20;;;;;;;;;;4971861;28;20046;-82
2023/04/29 11:38:32;;;;;;;4.35;2.78;;;;;;;;;;4973574;28;20046;-82
2023/04/29 11:40:59;;;;;;;5.78;3.40;;;;;;;;;;4991698;28;20046;-81
2023/04/29 11:43:25;;;;;;;6.70;2.90;;;;;;;;;;4967634;28;20545;-82
2023/04/29 11:45:52;;;;;;;4.53;3.35;;;;;;;;;;4966930;28;20051;-82
2023/04/29 11:48:19;;;;;;;3.67;2.95;;;;;;;;;;4990002;28;20504;-81
2023/04/29 11:50:47;;;;;;;3.63;2.72;;;;;;;;;;4971999;28;20275;-81
2023/04/29 11:53:13;;;;;;;7.40;3.40;;;;;;;;;;4989224;28;20072;-82
2023/04/29 11:55:41;;;;;;;4.72;3.35;;;;;;;;;;4990026;28;20050;-81
2023/04/29 11:58:07;;;;;;;3.50;2.80;;;;;;;;;;5004047;28;20077;-82
2023/04/29 12:00:34;;;;;;;5.95;3.17;;;;;;;;;;5008065;28;20046;-82
2023/04/29 12:03:00;;;;;;;8.13;3.22;;;;;;;;;;5009416;28;20042;-82
2023/04/29 12:05:26;;;;;;;7.10;3.40;;;;;;;;;;5011118;28;20100;-82
2023/04/29 12:07:54;;;;;;;5.50;3.20;;;;;;;;;;5010328;28;20050;-81
2023/04/29 12:10:20;;;;;;;6.43;3.30;;;;;;;;;;4995560;28;20054;-82
2023/04/29 12:12:47;;;;;;;7.32;3.95;;;;;;;;;;5010467;28;20096;-82
2023/04/29 12:15:13;;;;;;;5.45;3.67;;;;;;;;;;5009431;28;20050;-82
2023/04/29 12:17:40;;;;;;;4.22;3.30;;;;;;;;;;5011310;28;20389;-81
2023/04/29 12:20:10;;;;;;;5.45;3.47;;;;;;;;;;5004432;28;20061;-82
2023/04/29 12:22:36;;;;;;;7.90;3.53;;;;;;;;;;5010857;28;20428;-82
2023/04/29 12:25:03;;;;;;;6.50;3.88;;;;;;;;;;5005532;28;20160;-81
2023/04/29 12:27:29;;;;;;;4.75;3.00;;;;;;;;;;5006003;28;20046;-81
2023/04/29 12:29:56;;;;;;;5.50;2.80;;;;;;;;;;5008653;28;20034;-82
2023/04/29 12:32:23;;;;;;;5.32;2.83;;;;;;;;;;5009704;28;20121;-82
2023/04/29 12:34:51;;;;;;;3.20;2.67;;;;;;;;;;5009220;28;20045;-82
2023/04/29 12:37:17;;;;;;;4.75;3.00;;;;;;;;;;5005349;28;20117;-82
2023/04/29 12:39:43;;;;;;;5.75;3.40;;;;;;;;;;5001184;28;20508;-79
2023/04/29 12:42:15;;;;;;;4.75;2.80;;;;;;;;;;4998357;28;20475;-80
2023/04/29 12:44:41;;;;;;;8.15;3.38;;;;;;;;;;5009723;28;20038;-84
2023/04/29 12:47:08;;;;;;;5.38;3.17;;;;;;;;;;5003074;28;20046;-81
2023/04/29 12:49:35;;;;;;;7.15;3.45;;;;;;;;;;5007455;28;20044;-79
2023/04/29 12:52:01;;;;;;;6.20;3.20;;;;;;;;;;5007190;28;20030;-80
2023/04/29 12:54:27;;;;;;;5.15;3.83;;;;;;;;;;5004812;28;20501;-81
2023/04/29 12:56:54;;;;;;;4.13;3.00;;;;;;;;;;5005966;28;20038;-79
2023/04/29 12:59:20;;;;;;;9.15;3.25;;;;;;;;;;5005006;28;20046;-79
2023/04/29 13:01:46;;;;;;;6.00;2.83;;;;;;;;;;5004113;28;20148;-81
2023/04/29 13:04:12;;;;;;;7.03;3.42;;;;;;;;;;5007205;28;20042;-80
2023/04/29 13:06:38;;;;;;;4.63;3.10;;;;;;;;;;5005813;28;20089;-81
2023/04/29 13:09:05;;;;;;;5.75;3.10;;;;;;;;;;5003967;28;20042;-80
2023/04/29 13:11:31;;;;;;;7.18;2.97;;;;;;;;;;5006924;28;20555;-79
2023/04/29 13:13:57;;;;;;;5.03;3.40;;;;;;;;;;5000648;28;20081;-79
2023/04/29 13:16:24;;;;;;;6.13;3.05;;;;;;;;;;5006992;28;20056;-79
2023/04/29 13:18:50;;;;;;;5.60;3.03;;;;;;;;;;4996776;28;20034;-79
2023/04/29 13:21:16;;;;;;;8.15;3.50;;;;;;;;;;5006058;28;20096;-80
2023/04/29 13:23:42;;;;;;;5.25;3.67;;;;;;;;;;5008573;28;20469;-79
2023/04/29 13:26:08;;;;;;;7.85;3.47;;;;;;;;;;5009968;28;20045;-80
2023/04/29 13:28:34;;;;;;;4.75;3.10;;;;;;;;;;5007887;28;20077;-79
2023/04/29 13:31:00;;;;;;;6.93;3.70;;;;;;;;;;5007395;28;20108;-79
2023/04/29 13:33:26;;;;;;;5.80;3.85;;;;;;;;;;5009790;28;20458;-79
2023/04/29 13:35:52;;;;;;;5.30;3.10;;;;;;;;;;5005936;28;20046;-81
2023/04/29 13:38:18;;;;;;;5.28;3.70;;;;;;;;;;5004484;28;20050;-82
2023/04/29 13:40:44;;;;;;;6.65;3.90;;;;;;;;;;5008897;28;20398;-83
2023/04/29 13:43:10;;;;;;;5.57;3.83;;;;;;;;;;5006410;28;20050;-82
2023/04/29 13:45:37;;;;;;;7.38;3.50;;;;;;;;;;5007250;28;20481;-79
2023/04/29 13:48:03;;;;;;;6.63;3.97;;;;;;;;;;5004811;28;20654;-80
2023/04/29 13:50:29;;;;;;;8.48;4.68;;;;;;;;;;5008426;28;20038;-81
2023/04/29 13:52:56;;;;;;;8.80;5.13;;;;;;;;;;5005695;28;20092;-81
2023/04/29 13:55:22;;;;;;;8.02;4.60;;;;;;;;;;5007883;28;20053;-81
2023/04/29 13:57:49;;;;;;;6.43;4.55;;;;;;;;;;4973189;28;20061;-79
2023/04/29 14:00:16;;;;;;;10.82;5.07;;;;;;;;;;4988652;28;20757;-81
2023/04/29 14:02:42;;;;;;;7.97;5.00;;;;;;;;;;4994236;28;20065;-81
2023/04/29 14:05:09;;;;;;;6.05;5.00;;;;;;;;;;4974508;28;20104;-80
2023/04/29 14:07:35;;;;;;;7.20;5.07;;;;;;;;;;4975462;28;20042;-81
2023/04/29 14:10:01;;;;;;;5.50;4.93;;;;;;;;;;4982653;28;20054;-82
2023/04/29 14:12:27;;;;;;;8.40;5.40;;;;;;;;;;4964469;28;20158;-80
2023/04/29 14:14:53;;;;;;;11.13;5.55;;;;;;;;;;4969097;28;20047;-79
2023/04/29 14:17:19;;;;;;;8.85;5.57;;;;;;;;;;4969535;28;20050;-80
2023/04/29 14:19:45;;;;;;;9.38;6.10;;;;;;;;;;4983315;28;20046;-80
2023/04/29 14:22:11;;;;;;;8.77;5.40;;;;;;;;;;4974710;28;20107;-80
2023/04/29 14:24:38;;;;;;;10.23;5.57;;;;;;;;;;4974500;28;20508;-80
2023/04/29 14:27:04;;;;;;;10.35;5.38;;;;;;;;;;4974251;28;20043;-81
2023/04/29 14:29:30;;;;;;;8.43;5.60;;;;;;;;;;4989346;28;20073;-80
2023/04/29 14:31:56;;;;;;;7.35;4.68;;;;;;;;;;4973079;28;20074;-80